Time;durP1;ratioP1;P1;durP2;ratioP2;P2;SDS_P1;SDS_P2;PMS_P1;PMS_P2;Temp;Humidity;BMP_temperature;BMP_pressure;BME280_temperature;BME280_humidity;BME280_pressure;Samples;Min_cycle;Max_cycle;Signal;HPM_P1;HPM_P2
2022/02/09 00:09:05;;;;;;;14.15;6.97;;;9.30;99.90;;;;;;4910286;29;20865;-52
2022/02/09 00:11:39;;;;;;;12.63;7.50;;;9.30;99.90;;;;;;4955608;28;20469;-51
2022/02/09 00:14:19;;;;;;;17.95;7.85;;;9.40;99.90;;;;;;4940830;28;20637;-58
2022/02/09 00:19:31;;;;;;;16.85;7.45;;;9.30;99.90;;;;;;4936183;29;20058;-59
2022/02/09 00:22:22;;;;;;;13.45;7.70;;;9.40;99.90;;;;;;4918522;29;20051;-59
2022/02/09 00:38:33;;;;;;;12.75;7.00;;;9.40;99.90;;;;;;4910178;28;20043;-59
2022/02/09 01:56:31;;;;;;;13.20;6.93;;;9.40;99.90;;;;;;4923993;28;20094;-60
2022/02/09 01:58:58;;;;;;;16.50;6.65;;;9.40;99.90;;;;;;4943525;29;20057;-60
2022/02/09 02:01:24;;;;;;;10.02;7.47;;;9.40;99.90;;;;;;4927524;29;20047;-61
2022/02/09 02:03:51;;;;;;;12.43;6.22;;;9.40;99.90;;;;;;4940860;28;20063;-59
2022/02/09 02:06:18;;;;;;;11.85;6.45;;;9.40;99.90;;;;;;4945247;29;20059;-60
2022/02/09 02:08:47;;;;;;;10.82;6.60;;;9.40;99.90;;;;;;4942091;29;20462;-59
2022/02/09 02:11:42;;;;;;;9.25;6.40;;;9.50;99.90;;;;;;4943401;28;20055;-60
2022/02/09 02:14:17;;;;;;;12.00;7.63;;;9.40;99.90;;;;;;4938472;28;20075;-60
2022/02/09 02:16:52;;;;;;;12.70;7.25;;;9.40;99.90;;;;;;4907927;29;20064;-54
2022/02/09 02:19:32;;;;;;;13.35;6.63;;;9.40;99.90;;;;;;4911441;28;20058;-54
2022/02/09 02:25:03;;;;;;;11.45;7.13;;;9.40;99.90;;;;;;4931466;28;20082;-53
2022/02/09 02:41:01;;;;;;;12.23;6.47;;;9.30;99.90;;;;;;4910401;29;20063;-54
2022/02/09 02:57:09;;;;;;;9.90;6.47;;;9.30;99.90;;;;;;4906384;28;20051;-52
2022/02/09 02:59:45;;;;;;;12.07;6.90;;;9.30;99.90;;;;;;4941895;28;20047;-52
2022/02/09 03:18:38;;;;;;;10.75;7.10;;;9.20;99.90;;;;;;4942897;28;20051;-52
2022/02/09 03:20:55;;;;;;;12.23;6.75;;;9.20;99.90;;;;;;4942092;28;20138;-59
2022/02/09 03:55:11;;;;;;;12.90;8.75;;;9.10;99.90;;;;;;4932806;29;20380;-53
2022/02/09 03:57:46;;;;;;;15.02;9.35;;;9.10;99.90;;;;;;4928271;28;20051;-52
2022/02/09 04:00:19;;;;;;;13.68;8.77;;;9.10;99.90;;;;;;4925292;29;20511;-54
2022/02/09 04:02:47;;;;;;;14.00;9.23;;;9.10;99.90;;;;;;4934410;28;20131;-52
2022/02/09 04:05:14;;;;;;;10.73;8.20;;;9.10;99.90;;;;;;4950310;29;20070;-60
2022/02/09 04:07:40;;;;;;;13.98;8.63;;;9.10;99.90;;;;;;4939786;28;20047;-54
2022/02/09 04:10:10;;;;;;;16.30;9.13;;;9.10;99.90;;;;;;4936642;29;20055;-54
2022/02/09 04:36:17;;;;;;;16.17;9.23;;;9.00;99.90;;;;;;4924690;28;20050;-54
2022/02/09 04:38:51;;;;;;;10.27;9.15;;;9.00;99.90;;;;;;4944076;29;20054;-54
2022/02/09 04:41:31;;;;;;;14.95;9.23;;;9.00;99.90;;;;;;4943446;28;20126;-53
2022/02/09 04:57:42;;;;;;;11.25;7.95;;;9.00;99.90;;;;;;4931942;29;20055;-53
2022/02/09 05:00:33;;;;;;;13.35;8.63;;;9.00;99.90;;;;;;4944510;29;20047;-51
2022/02/09 05:30:20;;;;;;;11.93;8.82;;;9.10;99.90;;;;;;4935826;28;20061;-60
2022/02/09 05:32:47;;;;;;;14.93;10.75;;;9.10;99.90;;;;;;4903811;29;20511;-60
2022/02/09 05:35:16;;;;;;;13.82;10.57;;;9.10;99.90;;;;;;4908455;28;20058;-60
2022/02/09 05:37:42;;;;;;;17.95;11.32;;;9.10;99.90;;;;;;4927333;29;20079;-53
2022/02/09 05:40:08;;;;;;;15.45;11.95;;;9.10;99.90;;;;;;4908301;28;20052;-52
2022/02/09 05:42:34;;;;;;;15.85;13.20;;;9.10;99.90;;;;;;4942013;28;20048;-50
2022/02/09 05:45:06;;;;;;;17.95;12.85;;;9.10;99.90;;;;;;4917407;28;20086;-54
2022/02/09 05:50:34;;;;;;;16.90;12.48;;;9.10;99.90;;;;;;4932493;28;20052;-54
2022/02/09 05:55:44;;;;;;;15.63;12.73;;;9.10;99.90;;;;;;4953545;28;20056;-52
2022/02/09 05:58:20;;;;;;;14.77;11.60;;;9.10;99.90;;;;;;4942190;28;20422;-53
2022/02/09 06:00:47;;;;;;;15.32;13.70;;;9.10;99.90;;;;;;4918650;28;20117;-52
2022/02/09 06:03:15;;;;;;;16.48;13.60;;;9.10;99.90;;;;;;4936097;28;20040;-59
2022/02/09 06:05:41;;;;;;;13.93;12.25;;;9.10;99.90;;;;;;4980851;28;20062;-52
2022/02/09 06:08:07;;;;;;;12.95;11.55;;;9.10;99.90;;;;;;4967259;28;20079;-53
2022/02/09 06:10:35;;;;;;;15.95;12.48;;;9.10;99.90;;;;;;4978082;28;20046;-54
2022/02/09 06:21:09;;;;;;;16.70;12.82;;;9.10;99.90;;;;;;4966770;28;20051;-60
2022/02/09 06:23:35;;;;;;;14.90;13.30;;;9.10;99.90;;;;;;4959488;28;20134;-52
2022/02/09 06:26:02;;;;;;;14.05;12.57;;;9.10;99.90;;;;;;4960955;28;20065;-60
2022/02/09 06:28:32;;;;;;;15.10;12.05;;;9.10;99.90;;;;;;4962276;28;20155;-53
2022/02/09 06:30:58;;;;;;;15.20;13.10;;;9.10;99.90;;;;;;4971924;28;20391;-52
2022/02/09 06:33:24;;;;;;;16.20;12.32;;;9.10;99.90;;;;;;4996422;28;20045;-50
2022/02/09 06:35:53;;;;;;;13.15;11.80;;;9.10;99.90;;;;;;4962592;28;20061;-53
2022/02/09 06:38:19;;;;;;;16.65;12.43;;;9.10;99.90;;;;;;4985939;28;20196;-52
2022/02/09 06:40:46;;;;;;;14.25;12.82;;;9.10;99.90;;;;;;5020127;28;20036;-54
2022/02/09 06:43:13;;;;;;;13.95;11.98;;;9.10;99.90;;;;;;4993941;28;20412;-60
2022/02/09 06:45:42;;;;;;;13.52;11.73;;;9.10;99.90;;;;;;4959345;28;20513;-59
2022/02/09 06:48:13;;;;;;;14.85;12.18;;;9.10;99.90;;;;;;4954421;28;20492;-61
2022/02/09 06:50:43;;;;;;;16.48;11.88;;;9.10;99.90;;;;;;4924925;28;20070;-60
2022/02/09 06:55:55;;;;;;;13.75;11.18;;;9.10;99.90;;;;;;4974843;28;20055;-53
2022/02/09 06:58:55;;;;;;;14.77;10.70;;;9.10;99.90;;;;;;4948960;28;21025;-53
2022/02/09 07:01:10;;;;;;;14.27;11.15;;;9.00;99.90;;;;;;4937361;28;20054;-54
2022/02/09 07:03:36;;;;;;;12.50;10.98;;;9.00;99.90;;;;;;4977075;28;20046;-53
2022/02/09 07:06:03;;;;;;;15.35;11.07;;;9.00;99.90;;;;;;4965348;28;20058;-52
2022/02/09 07:08:29;;;;;;;13.93;10.32;;;9.10;99.90;;;;;;4989714;28;20059;-53
2022/02/09 07:10:56;;;;;;;14.95;11.05;;;9.00;99.90;;;;;;4960341;28;20086;-59
2022/02/09 07:13:22;;;;;;;13.02;11.00;;;9.00;99.90;;;;;;4953372;28;20053;-54
2022/02/09 07:15:51;;;;;;;10.43;8.65;;;9.00;99.90;;;;;;4937306;28;20059;-53
2022/02/09 07:18:18;;;;;;;14.35;8.65;;;9.00;99.90;;;;;;4945593;28;20118;-52
2022/02/09 07:20:58;;;;;;;10.40;7.20;;;9.00;99.90;;;;;;4944739;28;20048;-53
2022/02/09 07:23:47;;;;;;;13.00;8.48;;;9.00;99.90;;;;;;4946467;28;20102;-52
2022/02/09 07:26:41;;;;;;;9.68;7.57;;;9.10;99.90;;;;;;4945990;28;20483;-59
2022/02/09 07:29:09;;;;;;;9.57;7.00;;;9.00;99.90;;;;;;4934917;29;20051;-53
2022/02/09 07:31:35;;;;;;;10.32;7.63;;;9.00;99.90;;;;;;4953603;28;20625;-53
2022/02/09 07:34:01;;;;;;;10.57;6.70;;;9.00;99.90;;;;;;4896317;28;20487;-59
2022/02/09 07:36:35;;;;;;;11.60;6.43;;;9.00;99.90;;;;;;4942639;28;20079;-59
2022/02/09 07:39:04;;;;;;;9.35;6.60;;;9.00;99.90;;;;;;4991329;28;20041;-60
2022/02/09 07:41:31;;;;;;;11.88;6.63;;;9.00;99.90;;;;;;4978515;28;20045;-59
2022/02/09 07:56:24;;;;;;;11.23;6.28;;;9.10;99.90;;;;;;4918374;28;20456;-58
2022/02/09 07:58:51;;;;;;;10.68;6.93;;;9.10;99.90;;;;;;4935560;28;20130;-60
2022/02/09 08:01:17;;;;;;;11.52;6.65;;;9.00;99.90;;;;;;4936118;29;20608;-59
2022/02/09 08:03:43;;;;;;;10.35;7.38;;;9.10;99.90;;;;;;4926116;28;20101;-59
2022/02/09 08:06:10;;;;;;;9.38;7.00;;;9.10;99.90;;;;;;4939564;28;20120;-59
2022/02/09 08:08:40;;;;;;;10.57;7.38;;;9.10;99.90;;;;;;4915239;28;20083;-60
2022/02/09 08:11:20;;;;;;;12.45;8.52;;;9.10;99.90;;;;;;4966453;28;20399;-59
2022/02/09 08:33:04;;;;;;;12.73;9.40;;;9.20;99.90;;;;;;4942457;29;20051;-59
2022/02/09 08:35:30;;;;;;;13.30;10.52;;;9.20;99.90;;;;;;4926053;28;20051;-61
2022/02/09 08:37:58;;;;;;;14.98;10.57;;;9.20;99.90;;;;;;4924127;28;20487;-58
2022/02/09 08:40:26;;;;;;;11.80;10.32;;;9.20;99.90;;;;;;4939159;28;20048;-60
2022/02/09 08:42:53;;;;;;;15.18;12.02;;;9.20;99.90;;;;;;4953750;28;20036;-58
2022/02/09 08:45:19;;;;;;;15.63;11.73;;;9.30;99.90;;;;;;5003422;28;20531;-59
2022/02/09 08:47:47;;;;;;;14.77;10.98;;;9.30;99.90;;;;;;4975033;28;20131;-59
2022/02/09 08:50:15;;;;;;;15.38;11.88;;;9.30;99.90;;;;;;4975123;28;20125;-60
2022/02/09 08:52:41;;;;;;;13.82;11.18;;;9.30;99.90;;;;;;4963806;28;20037;-59
2022/02/09 08:55:09;;;;;;;15.20;10.80;;;9.30;99.90;;;;;;4975987;28;20055;-58
2022/02/09 08:57:35;;;;;;;14.88;10.55;;;9.30;99.90;;;;;;4987044;28;20554;-51
2022/02/09 09:00:12;;;;;;;15.10;12.10;;;9.30;99.90;;;;;;4970139;28;20046;-49
2022/02/09 09:02:43;;;;;;;13.48;12.05;;;9.30;99.90;;;;;;4961189;28;20051;-52
2022/02/09 09:05:16;;;;;;;14.52;11.43;;;9.20;99.90;;;;;;4980437;28;20052;-59
2022/02/09 09:07:47;;;;;;;17.55;13.25;;;9.20;99.90;;;;;;4994311;28;20120;-59
2022/02/09 09:10:25;;;;;;;16.13;11.77;;;9.10;99.90;;;;;;4979391;28;20054;-58
2022/02/09 10:33:06;;;;;;;15.05;12.40;;;9.00;99.90;;;;;;4940619;28;20054;-60
2022/02/09 10:35:40;;;;;;;19.17;13.02;;;9.00;99.90;;;;;;4959861;28;20043;-59
2022/02/09 10:38:22;;;;;;;16.17;11.73;;;9.10;99.90;;;;;;4965602;28;20065;-59
2022/02/09 10:40:52;;;;;;;15.48;11.65;;;9.10;99.90;;;;;;4973860;28;20053;-60
2022/02/09 10:43:31;;;;;;;17.40;12.52;;;9.10;99.90;;;;;;4991285;28;20044;-59
2022/02/09 10:46:21;;;;;;;16.58;11.73;;;9.10;99.90;;;;;;4976115;28;20051;-56
2022/02/09 10:48:56;;;;;;;20.15;12.02;;;9.10;99.90;;;;;;4973846;28;20144;-56
2022/02/09 10:51:49;;;;;;;11.90;10.77;;;9.10;99.90;;;;;;4994059;28;20047;-55
2022/02/09 10:54:25;;;;;;;15.07;12.25;;;9.20;99.90;;;;;;4962367;28;20045;-56
2022/02/09 10:57:00;;;;;;;14.95;11.40;;;9.10;99.90;;;;;;4967770;28;20092;-61
2022/02/09 10:59:29;;;;;;;15.07;10.80;;;9.30;99.90;;;;;;4954609;28;20039;-55
2022/02/09 11:02:00;;;;;;;13.80;10.10;;;9.30;99.90;;;;;;4973530;28;20131;-55
2022/02/09 11:04:27;;;;;;;16.42;9.98;;;9.30;99.90;;;;;;4971701;28;20491;-58
2022/02/09 11:06:54;;;;;;;12.68;9.95;;;9.30;99.90;;;;;;4963963;28;20069;-58
2022/02/09 11:09:21;;;;;;;12.38;10.50;;;9.30;99.90;;;;;;4932191;28;20799;-57
2022/02/09 11:11:48;;;;;;;12.88;9.48;;;9.30;99.90;;;;;;4954832;28;21106;-58
2022/02/09 11:14:18;;;;;;;9.63;7.65;;;9.40;99.90;;;;;;4925712;28;20082;-59
2022/02/09 11:16:52;;;;;;;13.68;10.05;;;9.40;99.90;;;;;;4983631;28;20055;-57
2022/02/09 11:19:19;;;;;;;12.27;8.13;;;9.40;99.90;;;;;;4930304;28;20039;-58
2022/02/09 11:21:51;;;;;;;11.45;8.77;;;9.40;99.90;;;;;;4953919;28;20059;-57
2022/02/09 11:24:19;;;;;;;11.65;7.07;;;9.50;99.90;;;;;;4930257;28;20542;-57
2022/02/09 11:27:09;;;;;;;12.88;7.60;;;9.40;99.90;;;;;;4972686;28;20472;-58
2022/02/09 11:29:58;;;;;;;9.77;7.55;;;9.40;99.90;;;;;;4946528;28;20209;-58
2022/02/09 11:35:12;;;;;;;10.57;8.25;;;9.50;99.90;;;;;;4977849;28;20474;-58
2022/02/09 11:37:39;;;;;;;9.90;7.50;;;9.50;99.90;;;;;;4946810;28;20117;-59
2022/02/09 11:43:26;;;;;;;11.73;7.43;;;9.50;99.90;;;;;;4951832;28;20051;-58
2022/02/09 12:00:15;;;;;;;15.63;9.52;;;9.40;99.90;;;;;;4929913;28;20053;-58
2022/02/09 12:09:00;;;;;;;11.68;9.15;;;9.30;99.90;;;;;;4941237;28;20127;-55
2022/02/09 12:11:38;;;;;;;13.82;9.40;;;9.40;99.90;;;;;;4930432;28;20505;-56
2022/02/09 12:19:10;;;;;;;15.93;9.65;;;9.40;99.90;;;;;;4930305;28;20375;-55
2022/02/09 12:21:55;;;;;;;19.20;11.32;;;9.40;99.90;;;;;;4991405;28;20040;-58
2022/02/09 12:24:29;;;;;;;12.20;9.50;;;9.40;99.90;;;;;;5003410;28;20055;-53
2022/02/09 12:27:00;;;;;;;12.00;8.13;;;9.40;99.90;;;;;;4969472;28;20062;-53
2022/02/09 12:29:36;;;;;;;15.25;7.97;;;9.30;99.90;;;;;;4918624;28;20094;-54
2022/02/09 12:32:23;;;;;;;14.98;8.63;;;9.40;99.90;;;;;;4994704;28;20427;-57
2022/02/09 12:35:02;;;;;;;11.85;6.53;;;9.30;99.90;;;;;;4954063;28;20062;-59
2022/02/09 12:37:33;;;;;;;11.32;7.30;;;9.40;99.90;;;;;;4932706;28;20074;-55
2022/02/09 12:40:07;;;;;;;10.82;6.93;;;9.30;99.90;;;;;;4970656;28;20051;-53
2022/02/09 12:42:36;;;;;;;10.77;5.53;;;9.30;99.90;;;;;;4933858;28;20071;-55
2022/02/09 12:45:08;;;;;;;9.45;4.35;;;9.20;99.90;;;;;;4933954;28;20051;-57
2022/02/09 12:47:46;;;;;;;10.63;5.18;;;9.20;99.90;;;;;;4964901;28;20049;-59
2022/02/09 12:50:15;;;;;;;12.90;5.38;;;9.20;99.90;;;;;;4951402;28;20389;-59
2022/02/09 12:52:43;;;;;;;13.25;5.47;;;9.20;99.90;;;;;;4995691;28;20056;-58
2022/02/09 12:55:18;;;;;;;12.80;5.60;;;9.10;99.90;;;;;;4925180;28;20088;-59
2022/02/09 12:58:08;;;;;;;9.90;5.97;;;9.10;99.90;;;;;;4971726;28;20057;-59
2022/02/09 13:00:46;;;;;;;11.10;5.40;;;9.10;99.90;;;;;;4949066;28;20051;-59
2022/02/09 13:03:18;;;;;;;10.60;5.32;;;9.10;99.90;;;;;;4940976;28;20051;-59
2022/02/09 13:05:46;;;;;;;12.45;4.85;;;9.20;99.90;;;;;;4945658;28;20078;-59
2022/02/09 13:08:18;;;;;;;9.95;4.88;;;9.20;99.90;;;;;;4930373;28;20113;-58
2022/02/09 13:10:44;;;;;;;8.90;4.47;;;9.20;99.90;;;;;;4961108;28;20403;-59
2022/02/09 13:13:16;;;;;;;11.45;5.05;;;9.20;99.90;;;;;;4947107;28;20047;-61
2022/02/09 13:15:49;;;;;;;13.48;4.63;;;9.20;99.90;;;;;;4940081;28;20138;-60
2022/02/09 13:22:21;;;;;;;8.23;5.45;;;9.10;99.90;;;;;;4951972;28;20087;-56
2022/02/09 13:54:09;;;;;;;13.98;7.55;;;9.10;99.90;;;;;;4958540;28;20426;-58
2022/02/09 14:34:38;;;;;;;15.23;8.82;;;8.90;99.90;;;;;;5001900;28;20094;-57
2022/02/09 14:55:29;;;;;;;11.27;8.20;;;9.00;99.90;;;;;;4933375;28;20039;-60
2022/02/09 14:58:08;;;;;;;12.15;8.60;;;9.00;99.90;;;;;;4947563;28;20074;-60
2022/02/09 15:00:39;;;;;;;11.65;8.27;;;9.00;99.90;;;;;;4948315;28;20047;-61
2022/02/09 15:08:34;;;;;;;10.75;7.78;;;9.00;99.90;;;;;;4975032;28;20037;-60
2022/02/09 15:11:08;;;;;;;10.32;7.20;;;9.00;99.90;;;;;;4960623;28;20143;-56
2022/02/09 15:13:53;;;;;;;11.30;7.78;;;9.00;99.90;;;;;;4959315;28;20055;-60
2022/02/09 15:19:44;;;;;;;9.88;7.30;;;8.90;99.90;;;;;;4963519;28;20414;-60
2022/02/09 15:22:07;;;;;;;10.25;7.78;;;8.90;99.90;;;;;;4952643;28;20043;-61
2022/02/09 15:24:39;;;;;;;9.13;6.90;;;8.90;99.90;;;;;;4947794;28;20051;-61
2022/02/09 15:27:07;;;;;;;8.55;6.60;;;8.90;99.90;;;;;;4962435;28;20422;-60
2022/02/09 15:29:37;;;;;;;8.38;6.88;;;8.90;99.90;;;;;;4957641;28;20082;-61
2022/02/09 15:32:08;;;;;;;12.65;8.43;;;8.90;99.90;;;;;;4948584;28;20459;-60
2022/02/09 15:34:48;;;;;;;10.25;7.70;;;8.90;99.90;;;;;;4964832;28;20059;-60
2022/02/09 15:37:25;;;;;;;8.65;6.78;;;8.80;99.90;;;;;;4980086;28;20047;-60
2022/02/09 15:39:54;;;;;;;8.15;6.88;;;8.80;99.90;;;;;;4984858;28;20049;-60
2022/02/09 16:22:09;;;;;;;11.40;9.88;;;8.80;99.90;;;;;;4961241;28;20597;-58
2022/02/09 16:38:52;;;;;;;16.08;14.10;;;8.80;99.90;;;;;;4946251;28;20043;-57
2022/02/09 16:46:54;;;;;;;17.45;14.10;;;8.70;99.90;;;;;;4945854;28;20110;-57
2022/02/09 16:49:30;;;;;;;19.75;14.88;;;8.70;99.90;;;;;;4924433;28;20133;-57
2022/02/09 16:52:06;;;;;;;15.32;12.30;;;8.80;99.90;;;;;;4937777;28;20043;-56
2022/02/09 17:21:11;;;;;;;21.95;13.77;;;8.60;99.90;;;;;;4946722;28;20109;-56
2022/02/09 17:23:37;;;;;;;17.33;13.20;;;8.60;99.90;;;;;;4959582;28;20051;-55
2022/02/09 17:26:04;;;;;;;23.33;15.18;;;8.60;99.90;;;;;;4927604;28;20056;-55
2022/02/09 17:28:30;;;;;;;17.88;13.40;;;8.60;99.90;;;;;;4953811;28;20519;-56
2022/02/09 17:31:25;;;;;;;19.58;14.27;;;8.60;99.90;;;;;;4959276;28;20508;-55
2022/02/09 17:36:36;;;;;;;21.38;14.30;;;8.60;99.90;;;;;;4943768;28;20082;-56
2022/02/09 17:39:26;;;;;;;24.65;15.50;;;8.60;99.90;;;;;;4914974;28;20077;-56
2022/02/09 17:58:29;;;;;;;24.60;14.50;;;8.60;99.90;;;;;;4947221;28;20045;-59
2022/02/09 18:00:57;;;;;;;29.65;14.88;;;8.50;99.90;;;;;;4949606;28;20041;-59
2022/02/09 18:03:24;;;;;;;22.73;14.77;;;8.50;99.90;;;;;;4946407;28;20118;-59
2022/02/09 18:05:53;;;;;;;23.13;14.88;;;8.50;99.90;;;;;;4943238;28;20109;-59
2022/02/09 18:29:39;;;;;;;32.58;21.05;;;8.50;99.90;;;;;;4935658;28;20055;-57
2022/02/09 18:32:41;;;;;;;29.27;21.40;;;8.50;99.90;;;;;;4935177;28;20101;-56
2022/02/09 18:38:09;;;;;;;30.33;21.77;;;8.50;99.90;;;;;;4941752;28;20051;-57
2022/02/09 18:43:24;;;;;;;38.20;23.15;;;8.40;99.90;;;;;;4959428;28;20414;-57
2022/02/09 18:46:22;;;;;;;35.83;23.30;;;8.40;99.90;;;;;;4932079;28;20055;-57
2022/02/09 18:49:05;;;;;;;31.65;21.70;;;8.40;99.90;;;;;;4941543;28;20047;-57
2022/02/09 19:02:19;;;;;;;30.35;20.95;;;8.40;99.90;;;;;;4937474;28;20322;-57
2022/02/09 19:04:48;;;;;;;35.13;19.60;;;8.40;99.90;;;;;;4932971;28;20109;-59
2022/02/09 19:18:09;;;;;;;21.17;10.65;;;8.30;99.90;;;;;;4937784;28;20039;-58
2022/02/09 19:31:22;;;;;;;17.48;11.32;;;8.20;99.90;;;;;;4947262;28;20513;-58
2022/02/09 19:47:15;;;;;;;38.33;22.15;;;8.10;99.90;;;;;;4942634;28;20055;-58
2022/02/09 19:49:55;;;;;;;36.58;22.15;;;8.20;99.90;;;;;;4947850;28;20051;-58
2022/02/09 19:52:37;;;;;;;45.65;24.02;;;8.20;99.90;;;;;;4947695;28;20051;-58
2022/02/09 19:55:22;;;;;;;50.25;26.55;;;8.20;99.90;;;;;;4927389;28;20066;-57
2022/02/09 19:57:48;;;;;;;48.63;27.52;;;8.20;99.90;;;;;;4930950;28;20519;-58
2022/02/09 20:00:19;;;;;;;53.88;28.33;;;8.20;99.90;;;;;;4944554;28;20060;-58
2022/02/09 20:02:47;;;;;;;56.53;30.83;;;8.30;99.90;;;;;;4921969;28;20051;-58
2022/02/09 20:05:21;;;;;;;48.33;27.70;;;8.20;99.90;;;;;;4940703;28;20386;-58
2022/02/09 20:07:48;;;;;;;60.95;28.70;;;8.20;99.90;;;;;;4938878;28;20058;-58
2022/02/09 20:10:14;;;;;;;58.50;31.75;;;8.20;99.90;;;;;;4948008;28;20056;-59
2022/02/09 20:12:41;;;;;;;53.72;30.05;;;8.20;99.90;;;;;;4909069;28;20541;-58
2022/02/09 20:15:11;;;;;;;60.78;31.55;;;8.20;99.90;;;;;;4959940;28;20051;-57
2022/02/09 20:17:41;;;;;;;55.88;31.17;;;8.20;99.90;;;;;;4930030;28;20056;-58
2022/02/09 20:20:11;;;;;;;53.90;31.52;;;8.20;99.90;;;;;;4952530;28;21014;-58
2022/02/09 20:22:37;;;;;;;55.22;30.92;;;8.30;99.90;;;;;;4937666;28;20123;-58
2022/02/09 20:25:06;;;;;;;61.53;34.15;;;8.20;99.90;;;;;;4927548;28;20131;-58
2022/02/09 20:27:35;;;;;;;66.18;33.60;;;8.30;99.90;;;;;;4939200;28;20506;-58
2022/02/09 20:30:04;;;;;;;72.82;34.72;;;8.30;99.90;;;;;;4948934;28;20039;-58
2022/02/09 20:32:35;;;;;;;72.82;35.05;;;8.30;99.90;;;;;;4947808;28;20142;-58
2022/02/09 20:35:05;;;;;;;78.70;36.78;;;8.30;99.90;;;;;;4944259;28;20055;-55
2022/02/09 20:37:32;;;;;;;73.15;35.78;;;8.20;99.90;;;;;;4937655;28;20047;-58
2022/02/09 20:42:25;;;;;;;76.32;36.80;;;8.30;99.90;;;;;;4946573;28;20484;-58
2022/02/09 20:45:13;;;;;;;73.85;36.15;;;8.30;99.90;;;;;;4945951;28;20577;-58
2022/02/09 20:47:44;;;;;;;68.10;35.15;;;8.30;99.90;;;;;;4949315;28;20061;-58
2022/02/09 20:50:10;;;;;;;67.37;33.93;;;8.30;99.90;;;;;;4933540;28;20491;-59
2022/02/09 20:52:37;;;;;;;64.18;35.80;;;8.30;99.90;;;;;;4941549;28;20067;-58
2022/02/09 20:55:04;;;;;;;67.70;33.85;;;8.30;99.90;;;;;;4940121;28;20139;-58
2022/02/09 20:57:32;;;;;;;63.65;33.42;;;8.30;99.90;;;;;;4936698;28;20059;-56
2022/02/09 21:00:05;;;;;;;63.50;32.72;;;8.30;99.90;;;;;;4919889;29;20251;-55
2022/02/09 21:08:41;;;;;;;65.60;34.38;;;8.30;99.90;;;;;;4940508;28;20378;-58
2022/02/09 21:14:17;;;;;;;68.70;33.67;;;8.30;99.90;;;;;;4941573;28;20073;-58
2022/02/09 21:56:17;;;;;;;89.63;42.43;;;8.30;99.90;;;;;;4944182;28;20048;-59
2022/02/09 21:59:12;;;;;;;84.18;40.95;;;8.30;99.90;;;;;;4949531;28;20105;-59
2022/02/09 22:24:41;;;;;;;96.28;41.28;;;8.40;99.90;;;;;;4987385;28;20091;-58
2022/02/09 22:26:56;;;;;;;87.03;40.25;;;8.40;99.90;;;;;;4967641;28;20118;-59
2022/02/09 22:32:14;;;;;;;;;;;8.40;99.90;;;;;;4947325;28;20129;-59
2022/02/09 22:45:30;;;;;;;88.75;38.80;;;8.40;99.90;;;;;;4939570;28;19993;-59
2022/02/09 22:49:02;;;;;;;89.53;39.08;;;8.40;99.90;;;;;;4937014;28;20461;-59
2022/02/09 22:56:37;;;;;;;100.18;37.92;;;8.40;99.90;;;;;;4920859;28;20410;-59
2022/02/09 22:59:10;;;;;;;106.38;42.33;;;8.40;99.90;;;;;;4917784;28;20050;-59
2022/02/09 23:01:45;;;;;;;105.53;42.17;;;8.50;99.90;;;;;;4934719;28;20573;-59
2022/02/09 23:04:37;;;;;;;95.63;38.85;;;8.50;99.90;;;;;;4932144;28;20044;-59
2022/02/09 23:12:22;;;;;;;85.95;38.58;;;8.50;99.90;;;;;;4938522;28;20051;-59
2022/02/09 23:23:11;;;;;;;89.10;38.75;;;8.50;99.90;;;;;;4891532;29;20055;-59
